createdAt,value
2019-03-22T00:00:22.432Z,12.70
2019-03-22T00:02:52.235Z,12.70
2019-03-22T00:05:21.191Z,12.70
2019-03-22T00:07:51.062Z,12.60
2019-03-22T00:10:19.888Z,12.60
2019-03-22T00:12:48.597Z,12.60
2019-03-22T00:15:17.139Z,12.60
2019-03-22T00:17:45.665Z,12.50
2019-03-22T00:20:14.265Z,12.50
2019-03-22T00:22:43.058Z,12.50
2019-03-22T00:25:12.335Z,12.50
2019-03-22T00:27:41.019Z,12.40
2019-03-22T00:30:11.549Z,12.40
2019-03-22T00:32:40.336Z,12.30
2019-03-22T00:35:09.405Z,12.20
2019-03-22T00:37:38.099Z,12.20
2019-03-22T00:40:07.973Z,12.10
2019-03-22T00:42:36.699Z,12.10
2019-03-22T00:45:09.797Z,12.10
2019-03-22T00:47:38.445Z,12.00
2019-03-22T00:50:09.317Z,12.00
2019-03-22T00:52:37.837Z,12.00
2019-03-22T00:55:07.185Z,11.90
2019-03-22T00:57:35.770Z,11.80
2019-03-22T01:00:06.904Z,11.80
2019-03-22T01:02:35.458Z,11.80
2019-03-22T01:05:06.582Z,11.70
2019-03-22T01:07:35.104Z,11.70
2019-03-22T01:10:06.236Z,11.70
2019-03-22T01:12:35.541Z,11.60
2019-03-22T01:15:06.446Z,11.60
2019-03-22T01:17:35.080Z,11.60
2019-03-22T01:20:06.312Z,11.60
2019-03-22T01:22:34.795Z,11.60
2019-03-22T01:25:04.876Z,11.60
2019-03-22T01:27:40.331Z,11.60
2019-03-22T01:30:05.416Z,11.60
2019-03-22T01:32:34.143Z,11.60
2019-03-22T01:35:02.772Z,11.60
2019-03-22T01:37:31.291Z,11.60
2019-03-22T01:39:59.837Z,11.60
2019-03-22T01:42:28.406Z,11.60
2019-03-22T01:44:56.982Z,11.60
2019-03-22T01:47:25.743Z,11.60
2019-03-22T01:49:54.299Z,11.60
2019-03-22T01:52:22.974Z,11.60
2019-03-22T01:54:51.612Z,11.60
2019-03-22T01:57:20.238Z,11.60
2019-03-22T01:59:48.850Z,11.60
2019-03-22T02:02:17.369Z,11.60
2019-03-22T02:04:46.169Z,11.50
2019-03-22T02:07:14.716Z,11.50
2019-03-22T02:09:43.253Z,11.50
2019-03-22T02:12:11.936Z,11.40
2019-03-22T02:14:40.534Z,11.40
2019-03-22T02:17:09.182Z,11.40
2019-03-22T02:19:37.755Z,11.30
2019-03-22T02:22:06.503Z,11.40
2019-03-22T02:24:35.236Z,11.30
2019-03-22T02:27:03.912Z,11.30
2019-03-22T02:29:32.603Z,11.30
2019-03-22T02:32:01.307Z,11.30
2019-03-22T02:34:29.969Z,11.30
2019-03-22T02:36:58.711Z,11.30
2019-03-22T02:39:27.472Z,11.30
2019-03-22T02:41:56.319Z,11.20
2019-03-22T02:44:24.910Z,11.10
2019-03-22T02:46:53.532Z,11.10
2019-03-22T02:49:22.148Z,11.00
2019-03-22T02:51:50.858Z,10.90
2019-03-22T02:54:19.520Z,10.80
2019-03-22T02:56:48.139Z,10.80
2019-03-22T02:59:16.822Z,10.70
2019-03-22T03:01:45.748Z,10.60
2019-03-22T03:04:14.370Z,10.60
2019-03-22T03:06:43.005Z,10.60
2019-03-22T03:09:11.741Z,10.60
2019-03-22T03:11:40.248Z,10.60
2019-03-22T03:14:08.896Z,10.50
2019-03-22T03:16:37.660Z,10.50
2019-03-22T03:19:06.352Z,10.50
2019-03-22T03:21:34.879Z,10.50
2019-03-22T03:24:03.560Z,10.50
2019-03-22T03:26:32.064Z,10.40
2019-03-22T03:29:00.610Z,10.40
2019-03-22T03:31:29.177Z,10.40
2019-03-22T03:33:57.994Z,10.40
2019-03-22T03:36:26.636Z,10.40
2019-03-22T03:38:55.248Z,10.40
2019-03-22T03:41:23.818Z,10.40
2019-03-22T03:43:52.489Z,10.40
2019-03-22T03:46:21.059Z,10.40
2019-03-22T03:48:49.712Z,10.40
2019-03-22T03:51:18.353Z,10.40
2019-03-22T03:53:47.003Z,10.40
2019-03-22T03:56:15.477Z,10.40
2019-03-22T03:58:52.338Z,10.40
2019-03-22T04:01:16.474Z,10.40
2019-03-22T04:03:45.014Z,10.40
2019-03-22T04:06:13.630Z,10.40
2019-03-22T04:08:42.346Z,10.30
2019-03-22T04:11:11.102Z,10.30
2019-03-22T04:13:39.779Z,10.30
2019-03-22T04:16:08.389Z,10.30
2019-03-22T04:18:37.031Z,10.30
2019-03-22T04:21:05.761Z,10.30
2019-03-22T04:23:35.458Z,10.30
2019-03-22T04:26:04.003Z,10.20
2019-03-22T04:28:32.471Z,10.20
2019-03-22T04:31:01.085Z,10.20
2019-03-22T04:33:29.802Z,10.10
2019-03-22T04:35:58.416Z,10.10
2019-03-22T04:38:27.129Z,10.00
2019-03-22T04:40:55.716Z,10.00
2019-03-22T04:43:24.499Z,10.00
2019-03-22T04:45:54.708Z,9.90
2019-03-22T04:48:26.085Z,9.90
2019-03-22T04:50:57.782Z,9.90
2019-03-22T04:53:28.878Z,9.90
2019-03-22T04:56:00.422Z,9.80
2019-03-22T04:58:29.946Z,9.80
2019-03-22T05:01:00.636Z,9.80
2019-03-22T05:03:31.147Z,9.80
2019-03-22T05:06:02.445Z,9.80
2019-03-22T05:08:33.666Z,9.90
2019-03-22T05:11:04.571Z,9.90
2019-03-22T05:13:35.170Z,9.90
2019-03-22T05:16:05.889Z,9.90
2019-03-22T05:18:35.298Z,9.90
2019-03-22T05:21:05.182Z,9.90
2019-03-22T05:23:34.222Z,9.90
2019-03-22T05:26:04.029Z,9.90
2019-03-22T05:28:33.878Z,9.90
2019-03-22T05:31:11.059Z,9.90
2019-03-22T05:33:39.706Z,9.90
2019-03-22T05:36:08.305Z,9.90
2019-03-22T05:38:37.133Z,9.90
2019-03-22T05:41:05.802Z,9.90
2019-03-22T05:43:34.308Z,9.90
2019-03-22T05:46:02.968Z,10.00
2019-03-22T05:48:31.623Z,9.90
2019-03-22T05:51:00.104Z,10.00
2019-03-22T05:53:28.620Z,10.00
2019-03-22T05:55:57.235Z,9.90
2019-03-22T05:58:25.882Z,10.00
2019-03-22T06:00:54.411Z,9.90
2019-03-22T06:03:23.246Z,10.00
2019-03-22T06:05:52.410Z,10.00
2019-03-22T06:08:22.949Z,10.00
2019-03-22T06:10:51.576Z,10.10
2019-03-22T06:13:20.232Z,10.10
2019-03-22T06:15:48.900Z,10.10
2019-03-22T06:18:17.462Z,10.10
2019-03-22T06:20:46.077Z,10.10
2019-03-22T06:23:16.570Z,10.20
2019-03-22T06:25:46.176Z,10.20
2019-03-22T06:28:14.947Z,10.20
2019-03-22T06:30:43.550Z,10.30
2019-03-22T06:33:12.134Z,10.40
2019-03-22T06:35:40.670Z,10.40
2019-03-22T06:38:09.778Z,10.50
2019-03-22T06:40:38.446Z,10.50
2019-03-22T06:43:07.577Z,10.60
2019-03-22T06:45:36.910Z,10.60
2019-03-22T06:48:05.778Z,10.70
2019-03-22T06:50:34.329Z,10.80
2019-03-22T06:53:03.136Z,10.80
2019-03-22T06:55:31.670Z,10.90
2019-03-22T06:58:00.464Z,11.00
2019-03-22T07:00:31.459Z,11.10
2019-03-22T07:03:01.521Z,11.20
2019-03-22T07:05:30.173Z,11.30
2019-03-22T07:07:58.816Z,11.30
2019-03-22T07:10:27.447Z,11.40
2019-03-22T07:12:56.221Z,11.50
2019-03-22T07:15:24.829Z,11.50
2019-03-22T07:17:53.527Z,11.60
2019-03-22T07:20:22.288Z,11.60
2019-03-22T07:22:50.853Z,11.70
2019-03-22T07:25:19.537Z,11.70
2019-03-22T07:27:50.331Z,11.80
2019-03-22T07:30:20.367Z,11.80
2019-03-22T07:32:49.450Z,11.90
2019-03-22T07:35:18.715Z,11.90
2019-03-22T07:37:47.464Z,11.90
2019-03-22T07:40:16.661Z,12.00
2019-03-22T07:42:45.941Z,12.10
2019-03-22T07:45:14.658Z,12.20
2019-03-22T07:47:43.346Z,12.40
2019-03-22T07:50:12.976Z,12.50
2019-03-22T07:52:41.664Z,12.60
2019-03-22T07:55:10.899Z,12.70
2019-03-22T07:57:39.502Z,12.80
2019-03-22T08:00:12.463Z,12.90
2019-03-22T08:02:41.145Z,13.10
2019-03-22T08:05:10.535Z,13.20
2019-03-22T08:07:39.603Z,13.30
2019-03-22T08:10:09.021Z,13.40
2019-03-22T08:12:37.803Z,13.60
2019-03-22T08:15:08.519Z,13.70
2019-03-22T08:17:41.459Z,13.90
2019-03-22T08:20:10.306Z,14.00
2019-03-22T08:22:38.938Z,14.10
2019-03-22T08:25:08.865Z,14.30
2019-03-22T08:27:37.491Z,14.40
2019-03-22T08:30:09.159Z,14.50
2019-03-22T08:32:37.867Z,14.60
2019-03-22T08:35:07.140Z,14.80
2019-03-22T08:37:35.843Z,14.90
2019-03-22T08:40:06.130Z,15.00
2019-03-22T08:42:35.127Z,15.10
2019-03-22T08:45:05.058Z,15.30
2019-03-22T08:47:34.674Z,15.40
2019-03-22T08:50:04.841Z,15.60
2019-03-22T08:52:33.360Z,15.70
2019-03-22T08:55:02.304Z,15.80
2019-03-22T08:57:31.039Z,16.00
2019-03-22T08:59:59.783Z,16.10
2019-03-22T09:02:28.343Z,16.20
2019-03-22T09:04:57.185Z,16.30
2019-03-22T09:07:25.933Z,16.50
2019-03-22T09:09:54.784Z,16.60
2019-03-22T09:12:23.558Z,16.70
2019-03-22T09:14:52.228Z,16.80
2019-03-22T09:17:20.840Z,16.80
2019-03-22T09:19:51.140Z,16.90
2019-03-22T09:22:19.976Z,17.00
2019-03-22T09:24:48.568Z,17.00
2019-03-22T09:27:17.687Z,17.20
2019-03-22T09:29:47.525Z,17.30
2019-03-22T09:32:16.313Z,17.40
2019-03-22T09:34:45.036Z,17.50
2019-03-22T09:37:13.808Z,17.60
2019-03-22T09:39:42.763Z,17.80
2019-03-22T09:42:11.792Z,17.90
2019-03-22T09:44:44.572Z,18.00
2019-03-22T09:47:10.828Z,18.10
2019-03-22T09:49:39.361Z,18.20
2019-03-22T09:52:08.132Z,18.30
2019-03-22T09:54:36.781Z,18.50
2019-03-22T09:57:05.522Z,18.60
2019-03-22T09:59:34.360Z,18.70
2019-03-22T10:02:03.379Z,18.80
2019-03-22T10:04:32.428Z,18.90
2019-03-22T10:07:01.274Z,19.00
2019-03-22T10:09:30.083Z,19.10
2019-03-22T10:11:58.693Z,19.10
2019-03-22T10:14:27.317Z,19.10
2019-03-22T10:16:56.083Z,19.20
2019-03-22T10:19:24.783Z,19.30
2019-03-22T10:21:53.603Z,19.30
2019-03-22T10:24:22.211Z,19.40
2019-03-22T10:26:51.316Z,19.50
2019-03-22T10:29:20.232Z,19.50
2019-03-22T10:31:49.274Z,19.50
2019-03-22T10:34:18.256Z,19.60
2019-03-22T10:36:47.226Z,19.60
2019-03-22T10:39:16.150Z,19.70
2019-03-22T10:41:45.274Z,19.80
2019-03-22T10:44:14.349Z,19.80
2019-03-22T10:46:42.962Z,19.90
2019-03-22T10:49:12.420Z,20.00
2019-03-22T10:51:41.088Z,20.00
2019-03-22T10:54:10.001Z,20.20
2019-03-22T10:56:38.620Z,20.20
2019-03-22T10:59:07.498Z,20.40
2019-03-22T11:01:46.929Z,20.40
2019-03-22T11:06:35.978Z,20.70
2019-03-22T11:09:07.166Z,20.80
2019-03-22T11:11:36.112Z,20.80
2019-03-22T11:14:05.058Z,20.90
2019-03-22T11:16:33.568Z,21.00
2019-03-22T11:19:02.090Z,21.10
2019-03-22T11:21:30.796Z,21.30
2019-03-22T11:23:59.566Z,21.30
2019-03-22T11:26:29.280Z,21.50
2019-03-22T11:28:58.035Z,21.40
2019-03-22T11:31:28.588Z,21.70
2019-03-22T11:33:57.294Z,21.70
2019-03-22T11:36:26.248Z,21.80
2019-03-22T11:38:54.800Z,21.80
2019-03-22T11:41:23.575Z,21.90
2019-03-22T11:43:52.055Z,21.90
2019-03-22T11:46:20.628Z,22.10
2019-03-22T11:48:49.206Z,22.10
2019-03-22T11:51:17.844Z,22.30
2019-03-22T11:53:46.663Z,22.30
2019-03-22T11:56:15.447Z,22.40
2019-03-22T11:58:44.305Z,22.40
2019-03-22T12:01:19.686Z,22.50
2019-03-22T12:03:44.746Z,22.50
2019-03-22T12:06:13.536Z,22.60
2019-03-22T12:08:42.468Z,22.70
2019-03-22T12:11:10.988Z,22.80
2019-03-22T12:13:39.561Z,22.80
2019-03-22T12:16:08.226Z,22.90
2019-03-22T12:18:36.972Z,23.00
2019-03-22T12:21:05.590Z,23.00
2019-03-22T12:23:34.227Z,23.10
2019-03-22T12:26:02.896Z,23.20
2019-03-22T12:28:31.734Z,23.20
2019-03-22T12:31:00.457Z,23.30
2019-03-22T12:33:29.074Z,23.40
2019-03-22T12:35:57.624Z,23.50
2019-03-22T12:38:27.116Z,23.50
2019-03-22T12:40:56.232Z,23.60
2019-03-22T12:43:25.634Z,23.70
2019-03-22T12:45:54.288Z,23.70
2019-03-22T12:48:22.973Z,23.70
2019-03-22T12:50:51.687Z,23.80
2019-03-22T12:53:20.238Z,23.80
2019-03-22T12:55:48.988Z,23.90
2019-03-22T12:58:17.583Z,23.90
2019-03-22T13:00:46.202Z,23.90
2019-03-22T13:03:14.721Z,24.00
2019-03-22T13:05:43.368Z,24.00
2019-03-22T13:08:11.950Z,24.00
2019-03-22T13:10:40.501Z,24.10
2019-03-22T13:13:09.111Z,24.20
2019-03-22T13:15:37.709Z,24.20
2019-03-22T13:18:06.272Z,24.30
2019-03-22T13:20:34.953Z,24.40
2019-03-22T13:23:03.976Z,24.40
2019-03-22T13:25:32.743Z,24.50
2019-03-22T13:28:01.433Z,24.50
2019-03-22T13:30:35.555Z,24.60
2019-03-22T13:33:04.903Z,24.60
2019-03-22T13:35:33.745Z,24.70
2019-03-22T13:38:02.842Z,24.80
2019-03-22T13:40:31.387Z,24.90
2019-03-22T13:43:00.216Z,24.90
2019-03-22T13:45:28.930Z,25.00
2019-03-22T13:47:57.673Z,25.10
2019-03-22T13:50:26.216Z,25.20
2019-03-22T13:52:55.022Z,25.30
2019-03-22T13:55:23.676Z,25.40
2019-03-22T13:57:52.628Z,25.60
2019-03-22T14:00:21.575Z,25.70
2019-03-22T14:02:50.186Z,25.80
2019-03-22T14:05:19.183Z,25.90
2019-03-22T14:07:47.651Z,26.00
2019-03-22T14:10:33.032Z,26.10
2019-03-22T14:13:04.039Z,26.20
2019-03-22T14:15:32.725Z,26.30
2019-03-22T14:18:01.713Z,26.30
2019-03-22T14:20:30.800Z,26.40
2019-03-22T14:22:59.796Z,26.40
2019-03-22T14:25:28.957Z,26.50
2019-03-22T14:27:57.637Z,26.60
2019-03-22T14:30:26.159Z,26.60
2019-03-22T14:32:55.098Z,26.70
2019-03-22T14:35:23.864Z,26.80
2019-03-22T14:37:52.460Z,26.90
2019-03-22T14:40:21.082Z,27.00
2019-03-22T14:42:49.772Z,27.10
2019-03-22T14:45:18.711Z,27.10
2019-03-22T14:47:47.547Z,27.20
2019-03-22T14:50:16.126Z,27.40
2019-03-22T14:52:44.973Z,27.40
2019-03-22T14:55:14.015Z,27.60
2019-03-22T14:57:48.963Z,27.70
2019-03-22T15:00:13.943Z,28.00
2019-03-22T15:02:42.511Z,28.70
2019-03-22T15:05:11.255Z,29.40
2019-03-22T15:07:40.015Z,30.40
2019-03-22T15:10:11.471Z,31.40
2019-03-22T15:12:40.285Z,32.50
2019-03-22T15:15:28.289Z,33.60
2019-03-22T15:17:58.731Z,34.60
2019-03-22T15:20:31.834Z,35.70
2019-03-22T15:23:02.551Z,36.60
2019-03-22T15:25:38.716Z,37.50
2019-03-22T15:28:17.760Z,38.30
2019-03-22T15:31:04.690Z,39.00
2019-03-22T15:33:44.304Z,39.60
2019-03-22T15:36:17.763Z,40.10
2019-03-22T15:38:51.252Z,40.50
2019-03-22T15:41:20.122Z,40.90
2019-03-22T15:43:48.820Z,41.20
2019-03-22T15:46:17.601Z,41.50
2019-03-22T15:48:46.331Z,41.80
2019-03-22T15:51:14.970Z,42.10
2019-03-22T15:53:43.731Z,42.40
2019-03-22T15:56:15.978Z,42.60
2019-03-22T15:58:45.368Z,42.80
2019-03-22T16:01:14.044Z,42.80
2019-03-22T16:03:44.449Z,42.80
2019-03-22T16:06:13.284Z,42.50
2019-03-22T16:08:42.062Z,42.20
2019-03-22T16:11:10.854Z,41.70
2019-03-22T16:13:39.572Z,41.00
2019-03-22T16:16:08.269Z,40.30
2019-03-22T16:18:37.021Z,39.60
2019-03-22T16:21:05.919Z,39.20
2019-03-22T16:23:34.555Z,38.90
2019-03-22T16:26:03.311Z,38.80
2019-03-22T16:28:32.223Z,38.80
2019-03-22T16:31:00.940Z,38.90
2019-03-22T16:33:29.832Z,39.00
2019-03-22T16:35:58.670Z,39.10
2019-03-22T16:38:27.682Z,39.30
2019-03-22T16:40:56.441Z,39.40
2019-03-22T16:43:25.301Z,39.40
2019-03-22T16:45:54.489Z,39.40
2019-03-22T16:48:23.479Z,39.40
2019-03-22T16:50:52.111Z,39.30
2019-03-22T16:53:22.258Z,39.10
2019-03-22T16:55:51.468Z,38.80
2019-03-22T16:58:21.273Z,38.50
2019-03-22T17:00:50.342Z,38.20
2019-03-22T17:03:19.275Z,37.80
2019-03-22T17:05:47.749Z,37.40
2019-03-22T17:08:16.464Z,37.00
2019-03-22T17:10:44.963Z,36.40
2019-03-22T17:13:14.269Z,35.70
2019-03-22T17:15:43.255Z,34.80
2019-03-22T17:18:11.937Z,34.00
2019-03-22T17:20:41.014Z,33.10
2019-03-22T17:23:09.796Z,32.30
2019-03-22T17:25:38.743Z,31.40
2019-03-22T17:28:07.374Z,30.60
2019-03-22T17:30:36.479Z,29.90
2019-03-22T17:33:05.539Z,29.20
2019-03-22T17:35:35.554Z,28.50
2019-03-22T17:38:04.231Z,28.00
2019-03-22T17:40:33.267Z,27.00
2019-03-22T17:43:01.946Z,26.90
2019-03-22T17:45:30.667Z,26.50
2019-03-22T17:47:59.318Z,26.10
2019-03-22T17:50:28.092Z,25.40
2019-03-22T17:52:56.583Z,25.30
2019-03-22T17:55:25.237Z,25.00
2019-03-22T17:57:53.943Z,24.70
2019-03-22T18:00:27.056Z,24.50
2019-03-22T18:02:56.236Z,24.20
2019-03-22T18:05:24.781Z,24.00
2019-03-22T18:07:53.442Z,23.80
2019-03-22T18:10:22.209Z,23.60
2019-03-22T18:12:50.838Z,23.40
2019-03-22T18:15:19.548Z,23.20
2019-03-22T18:17:48.339Z,23.00
2019-03-22T18:20:17.452Z,22.80
2019-03-22T18:22:46.194Z,22.70
2019-03-22T18:25:15.894Z,22.60
2019-03-22T18:27:44.708Z,22.50
2019-03-22T18:30:14.931Z,22.40
2019-03-22T18:32:43.882Z,22.20
2019-03-22T18:35:12.607Z,22.00
2019-03-22T18:37:41.458Z,21.90
2019-03-22T18:40:15.049Z,21.70
2019-03-22T18:42:46.277Z,21.50
2019-03-22T18:45:15.340Z,21.40
2019-03-22T18:47:44.089Z,21.20
2019-03-22T18:50:13.665Z,21.20
2019-03-22T18:52:42.346Z,21.00
2019-03-22T18:55:11.390Z,20.90
2019-03-22T18:57:40.216Z,20.70
2019-03-22T19:00:14.097Z,20.70
2019-03-22T19:02:42.764Z,20.60
2019-03-22T19:05:11.951Z,20.50
2019-03-22T19:07:40.741Z,20.50
2019-03-22T19:10:16.163Z,20.40
2019-03-22T19:12:44.637Z,20.40
2019-03-22T19:15:15.102Z,20.30
2019-03-22T19:17:43.755Z,20.30
2019-03-22T19:20:14.222Z,20.20
2019-03-22T19:22:42.859Z,20.10
2019-03-22T19:25:14.284Z,20.10
2019-03-22T19:27:43.190Z,20.00
2019-03-22T19:30:16.072Z,20.00
2019-03-22T19:32:44.726Z,19.90
2019-03-22T19:35:13.691Z,19.80
2019-03-22T19:37:42.384Z,19.80
2019-03-22T19:40:14.115Z,19.70
2019-03-22T19:42:42.803Z,19.70
2019-03-22T19:45:12.858Z,19.60
2019-03-22T19:47:41.548Z,19.60
2019-03-22T19:50:11.933Z,19.50
2019-03-22T19:52:42.822Z,19.50
2019-03-22T19:55:11.501Z,19.40
2019-03-22T19:57:40.268Z,19.30
2019-03-22T20:00:11.841Z,19.30
2019-03-22T20:02:40.430Z,19.20
2019-03-22T20:05:09.355Z,19.20
2019-03-22T20:07:37.982Z,19.10
2019-03-22T20:10:11.693Z,19.10
2019-03-22T20:12:40.508Z,19.00
2019-03-22T20:15:10.710Z,18.90
2019-03-22T20:17:39.382Z,18.80
2019-03-22T20:20:09.148Z,18.80
2019-03-22T20:22:38.056Z,18.70
2019-03-22T20:25:10.102Z,18.70
2019-03-22T20:27:39.161Z,18.60
2019-03-22T20:30:16.147Z,18.50
2019-03-22T20:32:45.441Z,18.50
2019-03-22T20:35:16.741Z,18.40
2019-03-22T20:37:45.748Z,18.30
2019-03-22T20:40:18.755Z,18.20
2019-03-22T20:42:47.580Z,18.10
2019-03-22T20:45:23.977Z,18.10
2019-03-22T20:47:46.481Z,18.00
2019-03-22T20:50:15.267Z,17.90
2019-03-22T20:52:44.047Z,17.90
2019-03-22T20:55:12.956Z,17.80
2019-03-22T20:57:42.043Z,17.70
2019-03-22T21:00:55.285Z,17.70
2019-03-22T21:03:23.727Z,17.60
2019-03-22T21:05:56.753Z,17.60
2019-03-22T21:08:25.743Z,17.50
2019-03-22T21:10:54.441Z,17.40
2019-03-22T21:13:23.025Z,17.40
2019-03-22T21:15:52.945Z,17.30
2019-03-22T21:18:21.717Z,17.30
2019-03-22T21:20:50.549Z,17.20
2019-03-22T21:23:19.274Z,17.20
2019-03-22T21:25:47.983Z,17.10
2019-03-22T21:28:16.476Z,17.00
2019-03-22T21:30:45.090Z,17.00
2019-03-22T21:33:13.983Z,16.90
2019-03-22T21:35:42.579Z,16.90
2019-03-22T21:38:12.199Z,16.80
2019-03-22T21:40:41.793Z,16.80
2019-03-22T21:43:11.083Z,16.80
2019-03-22T21:45:39.853Z,16.70
2019-03-22T21:48:08.583Z,16.70
2019-03-22T21:50:37.243Z,16.60
2019-03-22T21:53:05.875Z,16.60
2019-03-22T21:55:34.862Z,16.60
2019-03-22T21:58:03.635Z,16.50
2019-03-22T22:00:32.386Z,16.50
2019-03-22T22:03:00.923Z,16.50
2019-03-22T22:05:29.718Z,16.50
2019-03-22T22:07:58.539Z,16.40
2019-03-22T22:10:27.265Z,16.40
2019-03-22T22:12:55.792Z,16.30
2019-03-22T22:15:24.606Z,16.30
2019-03-22T22:17:53.707Z,16.20
2019-03-22T22:20:28.884Z,16.20
2019-03-22T22:22:53.839Z,16.20
2019-03-22T22:25:22.530Z,16.10
2019-03-22T22:27:51.211Z,16.10
2019-03-22T22:30:19.778Z,16.10
2019-03-22T22:32:48.499Z,16.00
2019-03-22T22:35:16.998Z,16.00
2019-03-22T22:37:45.857Z,15.90
2019-03-22T22:40:14.981Z,15.90
2019-03-22T22:42:43.740Z,15.80
2019-03-22T22:45:12.669Z,15.80
2019-03-22T22:47:41.273Z,15.70
2019-03-22T22:50:12.921Z,15.70
2019-03-22T22:52:41.601Z,15.70
2019-03-22T22:55:10.518Z,15.60
2019-03-22T22:57:39.086Z,15.60
2019-03-22T23:00:14.008Z,15.60
2019-03-22T23:02:43.051Z,15.50
2019-03-22T23:05:11.596Z,15.50
2019-03-22T23:07:40.536Z,15.40
2019-03-22T23:10:12.614Z,15.40
2019-03-22T23:12:40.629Z,15.40
2019-03-22T23:15:09.689Z,15.40
2019-03-22T23:17:38.262Z,15.30
2019-03-22T23:20:08.892Z,15.30
2019-03-22T23:22:37.402Z,15.30
2019-03-22T23:25:09.258Z,15.20
2019-03-22T23:27:37.980Z,15.20
2019-03-22T23:30:11.851Z,15.20
2019-03-22T23:32:40.880Z,15.20
2019-03-22T23:35:09.523Z,15.20
2019-03-22T23:37:38.100Z,15.10
2019-03-22T23:40:07.195Z,15.10
2019-03-22T23:42:35.836Z,15.00
2019-03-22T23:45:06.668Z,15.00
2019-03-22T23:47:35.249Z,14.90
2019-03-22T23:50:05.874Z,14.90
2019-03-22T23:52:34.453Z,14.80
2019-03-22T23:55:03.073Z,14.80
2019-03-22T23:57:31.845Z,14.80
